EZY31BA EGKK-LSGG
Flight info
| Callsign | EZY31BA |
|---|---|
| Flight time | 1h 11m |
| Altitude | 31000 |
| Route | SFD Y47 BENBO L612 HAWKE UL612 VEULE DCT PEKIM DCT PILUL DCT PIMUP/N0429F270 DCT PIXIS DCT PIBAT DCT LUSAR |
| Aircraft | A320/M-SDE3FGHIRWY/LB1 |
Departure
| Time | 2026-05-07 20:41 |
|---|---|
| Airport | London Gatwick Airport (EGKK) |
Arrival
| Time | 2026-05-07 21:52 |
|---|---|
| Airport | Geneva International Airport (LSGG) |
| Time | Latitude | Longitude | Altitude | Speed | Heading |
|---|---|---|---|---|---|
| 2026-05-07 20:18 | 51.15833 | -0.17630 | 215 ft | 0 kts | 347° |
| 2026-05-07 20:29 | 51.15812 | -0.17622 | 216 ft | 4 kts | 347° |
| 2026-05-07 20:29 | 51.15786 | -0.17613 | 215 ft | 4 kts | 347° |
| 2026-05-07 20:30 | 51.15765 | -0.17606 | 212 ft | 4 kts | 338° |
| 2026-05-07 20:30 | 51.15751 | -0.17584 | 215 ft | 4 kts | 264° |
| 2026-05-07 20:30 | 51.15755 | -0.17548 | 214 ft | 2 kts | 257° |
| 2026-05-07 20:30 | 51.15756 | -0.17546 | 214 ft | 0 kts | 257° |
| 2026-05-07 20:32 | 51.15752 | -0.17571 | 213 ft | 6 kts | 257° |
| 2026-05-07 20:32 | 51.15738 | -0.17667 | 214 ft | 10 kts | 258° |
| 2026-05-07 20:32 | 51.15725 | -0.17771 | 204 ft | 9 kts | 258° |
| 2026-05-07 20:32 | 51.15712 | -0.17862 | 205 ft | 8 kts | 257° |
| 2026-05-07 20:33 | 51.15700 | -0.17943 | 210 ft | 7 kts | 257° |
| 2026-05-07 20:33 | 51.15691 | -0.18012 | 215 ft | 6 kts | 257° |
| 2026-05-07 20:33 | 51.15680 | -0.18087 | 204 ft | 9 kts | 257° |
| 2026-05-07 20:33 | 51.15664 | -0.18200 | 209 ft | 11 kts | 251° |
| 2026-05-07 20:34 | 51.15611 | -0.18232 | 204 ft | 8 kts | 166° |
| 2026-05-07 20:34 | 51.15534 | -0.18203 | 207 ft | 17 kts | 168° |
| 2026-05-07 20:34 | 51.15393 | -0.18146 | 204 ft | 18 kts | 168° |
| 2026-05-07 20:34 | 51.15291 | -0.18109 | 207 ft | 12 kts | 167° |
| 2026-05-07 20:35 | 51.15268 | -0.18101 | 204 ft | 0 kts | 167° |
| 2026-05-07 20:35 | 51.15251 | -0.18095 | 204 ft | 7 kts | 167° |
| 2026-05-07 20:35 | 51.15201 | -0.18165 | 215 ft | 15 kts | 258° |
| 2026-05-07 20:35 | 51.15180 | -0.18367 | 204 ft | 20 kts | 256° |
| 2026-05-07 20:36 | 51.15150 | -0.18593 | 204 ft | 22 kts | 258° |
| 2026-05-07 20:36 | 51.15115 | -0.18841 | 214 ft | 24 kts | 257° |
| 2026-05-07 20:36 | 51.15077 | -0.19105 | 207 ft | 25 kts | 257° |
| 2026-05-07 20:36 | 51.15036 | -0.19387 | 211 ft | 27 kts | 258° |
| 2026-05-07 20:37 | 51.14998 | -0.19686 | 210 ft | 28 kts | 258° |
| 2026-05-07 20:37 | 51.14955 | -0.20002 | 214 ft | 30 kts | 257° |
| 2026-05-07 20:37 | 51.14908 | -0.20333 | 207 ft | 31 kts | 257° |
| 2026-05-07 20:37 | 51.14877 | -0.20558 | 207 ft | 14 kts | 257° |
| 2026-05-07 20:38 | 51.14861 | -0.20672 | 203 ft | 9 kts | 258° |
| 2026-05-07 20:38 | 51.14845 | -0.20791 | 203 ft | 11 kts | 258° |
| 2026-05-07 20:38 | 51.14825 | -0.20942 | 214 ft | 19 kts | 258° |
| 2026-05-07 20:38 | 51.14794 | -0.21143 | 215 ft | 14 kts | 245° |
| 2026-05-07 20:39 | 51.14768 | -0.21288 | 209 ft | 13 kts | 257° |
| 2026-05-07 20:39 | 51.14731 | -0.21400 | 210 ft | 11 kts | 201° |
| 2026-05-07 20:39 | 51.14666 | -0.21364 | 215 ft | 10 kts | 140° |
| 2026-05-07 20:39 | 51.14606 | -0.21315 | 208 ft | 10 kts | 168° |
| 2026-05-07 20:40 | 51.14546 | -0.21278 | 208 ft | 10 kts | 138° |
| 2026-05-07 20:40 | 51.14519 | -0.21177 | 209 ft | 10 kts | 93° |
| 2026-05-07 20:40 | 51.14527 | -0.21114 | 213 ft | 0 kts | 77° |
| 2026-05-07 20:40 | 51.14538 | -0.21038 | 204 ft | 31 kts | 77° |
| 2026-05-07 20:41 | 51.14642 | -0.20283 | 214 ft | 104 kts | 77° |
| 2026-05-07 20:41 | 51.14840 | -0.18848 | 205 ft | 158 kts | 77° |
| 2026-05-07 20:41 | 51.15078 | -0.17086 | 804 ft | 161 kts | 79° |
| 2026-05-07 20:41 | 51.15285 | -0.15343 | 1578 ft | 164 kts | 81° |
| 2026-05-07 20:42 | 51.15537 | -0.13430 | 1935 ft | 188 kts | 79° |
| 2026-05-07 20:42 | 51.15731 | -0.12032 | 2150 ft | 203 kts | 79° |
| 2026-05-07 20:42 | 51.16056 | -0.09716 | 2715 ft | 219 kts | 78° |
| 2026-05-07 20:42 | 51.16107 | -0.07306 | 3606 ft | 222 kts | 108° |
| 2026-05-07 20:43 | 51.15200 | -0.05278 | 4253 ft | 240 kts | 144° |
| 2026-05-07 20:43 | 51.13603 | -0.04182 | 4861 ft | 259 kts | 165° |
| 2026-05-07 20:43 | 51.11810 | -0.03617 | 5750 ft | 266 kts | 171° |
| 2026-05-07 20:43 | 51.09960 | -0.03201 | 6625 ft | 273 kts | 172° |
| 2026-05-07 20:44 | 51.08076 | -0.02679 | 6957 ft | 276 kts | 168° |
| 2026-05-07 20:44 | 51.06205 | -0.01973 | 7063 ft | 276 kts | 166° |
| 2026-05-07 20:44 | 51.04344 | -0.01153 | 7627 ft | 279 kts | 165° |
| 2026-05-07 20:44 | 51.02477 | -0.00279 | 8619 ft | 281 kts | 165° |
| 2026-05-07 20:45 | 51.00591 | 0.00622 | 9511 ft | 285 kts | 165° |
| 2026-05-07 20:45 | 50.98684 | 0.01541 | 10370 ft | 289 kts | 165° |
| 2026-05-07 20:45 | 50.96743 | 0.02470 | 11221 ft | 292 kts | 165° |
| 2026-05-07 20:45 | 50.94814 | 0.03388 | 12090 ft | 294 kts | 165° |
| 2026-05-07 20:46 | 50.92848 | 0.04321 | 12969 ft | 296 kts | 165° |
| 2026-05-07 20:46 | 50.90837 | 0.05271 | 13857 ft | 299 kts | 165° |
| 2026-05-07 20:46 | 50.88863 | 0.06204 | 14591 ft | 301 kts | 165° |
| 2026-05-07 20:46 | 50.86841 | 0.07155 | 15303 ft | 305 kts | 165° |
| 2026-05-07 20:47 | 50.84796 | 0.08113 | 16011 ft | 308 kts | 165° |
| 2026-05-07 20:47 | 50.82726 | 0.09081 | 16708 ft | 312 kts | 166° |
| 2026-05-07 20:47 | 50.80628 | 0.10061 | 17010 ft | 315 kts | 166° |
| 2026-05-07 20:47 | 50.78518 | 0.11040 | 17377 ft | 317 kts | 166° |
| 2026-05-07 20:48 | 50.76349 | 0.11648 | 18098 ft | 317 kts | 179° |
| 2026-05-07 20:48 | 50.74110 | 0.11494 | 18435 ft | 331 kts | 191° |
| 2026-05-07 20:48 | 50.71801 | 0.10680 | 18561 ft | 350 kts | 195° |
| 2026-05-07 20:48 | 50.69375 | 0.09776 | 18685 ft | 368 kts | 194° |
| 2026-05-07 20:49 | 50.66843 | 0.08836 | 19007 ft | 378 kts | 194° |
| 2026-05-07 20:49 | 50.64268 | 0.07891 | 19495 ft | 382 kts | 194° |
| 2026-05-07 20:49 | 50.61667 | 0.06951 | 20054 ft | 385 kts | 194° |
| 2026-05-07 20:49 | 50.59050 | 0.06010 | 20610 ft | 387 kts | 194° |
| 2026-05-07 20:50 | 50.56415 | 0.05068 | 21151 ft | 390 kts | 194° |
| 2026-05-07 20:50 | 50.53759 | 0.04121 | 21682 ft | 393 kts | 194° |
| 2026-05-07 20:50 | 50.51082 | 0.03170 | 22206 ft | 396 kts | 193° |
| 2026-05-07 20:50 | 50.48336 | 0.02661 | 22701 ft | 401 kts | 183° |
| 2026-05-07 20:51 | 50.45537 | 0.02970 | 23207 ft | 406 kts | 172° |
| 2026-05-07 20:51 | 50.42823 | 0.04306 | 23688 ft | 414 kts | 156° |
| 2026-05-07 20:51 | 50.40424 | 0.06752 | 24073 ft | 420 kts | 144° |
| 2026-05-07 20:51 | 50.38133 | 0.09617 | 24484 ft | 423 kts | 143° |
| 2026-05-07 20:52 | 50.35846 | 0.12532 | 24887 ft | 425 kts | 143° |
| 2026-05-07 20:52 | 50.33562 | 0.15471 | 25294 ft | 427 kts | 143° |
| 2026-05-07 20:52 | 50.31260 | 0.18435 | 25673 ft | 429 kts | 143° |
| 2026-05-07 20:52 | 50.28941 | 0.21411 | 26070 ft | 431 kts | 143° |
| 2026-05-07 20:53 | 50.26615 | 0.24383 | 26464 ft | 434 kts | 143° |
| 2026-05-07 20:53 | 50.24269 | 0.27364 | 26850 ft | 436 kts | 143° |
| 2026-05-07 20:53 | 50.21906 | 0.30349 | 27232 ft | 438 kts | 143° |
| 2026-05-07 20:53 | 50.19532 | 0.33340 | 27608 ft | 440 kts | 143° |
| 2026-05-07 20:54 | 50.17140 | 0.36348 | 27963 ft | 442 kts | 143° |
| 2026-05-07 20:54 | 50.14737 | 0.39372 | 28316 ft | 444 kts | 143° |
| 2026-05-07 20:54 | 50.12324 | 0.42410 | 28650 ft | 447 kts | 143° |
| 2026-05-07 20:54 | 50.09902 | 0.45461 | 28988 ft | 449 kts | 143° |
| 2026-05-07 20:55 | 50.07472 | 0.48525 | 29297 ft | 451 kts | 143° |
| 2026-05-07 20:55 | 50.05024 | 0.51607 | 29605 ft | 453 kts | 143° |
| 2026-05-07 20:55 | 50.02557 | 0.54700 | 29926 ft | 455 kts | 143° |
| 2026-05-07 20:55 | 50.00089 | 0.57784 | 30283 ft | 455 kts | 143° |
| 2026-05-07 20:56 | 49.97622 | 0.60861 | 30662 ft | 454 kts | 143° |
| 2026-05-07 20:56 | 49.95159 | 0.63936 | 30974 ft | 454 kts | 144° |
| 2026-05-07 20:56 | 49.92699 | 0.67007 | 31055 ft | 451 kts | 144° |
| 2026-05-07 20:57 | 49.87841 | 0.73065 | 31069 ft | 446 kts | 144° |
| 2026-05-07 20:57 | 49.82998 | 0.79071 | 31068 ft | 446 kts | 144° |
| 2026-05-07 20:58 | 49.78156 | 0.85057 | 31068 ft | 446 kts | 144° |
| 2026-05-07 20:58 | 49.73310 | 0.91035 | 31056 ft | 446 kts | 144° |
| 2026-05-07 20:59 | 49.68461 | 0.97009 | 31052 ft | 446 kts | 144° |
| 2026-05-07 20:59 | 49.63640 | 1.02927 | 31048 ft | 446 kts | 144° |
| 2026-05-07 21:00 | 49.58786 | 1.08883 | 31047 ft | 445 kts | 144° |
| 2026-05-07 21:00 | 49.53932 | 1.14818 | 31047 ft | 445 kts | 144° |
| 2026-05-07 21:01 | 49.49071 | 1.20731 | 31030 ft | 445 kts | 144° |
| 2026-05-07 21:01 | 49.44206 | 1.26639 | 31035 ft | 446 kts | 144° |
| 2026-05-07 21:02 | 49.39328 | 1.32558 | 31030 ft | 446 kts | 144° |
| 2026-05-07 21:02 | 49.34448 | 1.38465 | 31042 ft | 447 kts | 144° |
| 2026-05-07 21:03 | 49.29588 | 1.44321 | 31045 ft | 447 kts | 144° |
| 2026-05-07 21:03 | 49.24681 | 1.50218 | 31040 ft | 448 kts | 144° |
| 2026-05-07 21:04 | 49.19779 | 1.56104 | 31044 ft | 448 kts | 144° |
| 2026-05-07 21:04 | 49.14873 | 1.61972 | 31048 ft | 448 kts | 144° |
| 2026-05-07 21:05 | 49.09963 | 1.67829 | 31049 ft | 448 kts | 145° |
| 2026-05-07 21:05 | 49.05049 | 1.73678 | 31040 ft | 448 kts | 144° |
| 2026-05-07 21:06 | 49.00134 | 1.79512 | 31037 ft | 448 kts | 145° |
| 2026-05-07 21:06 | 48.95242 | 1.85309 | 31041 ft | 448 kts | 145° |
| 2026-05-07 21:07 | 48.90312 | 1.91132 | 31043 ft | 449 kts | 145° |
| 2026-05-07 21:07 | 48.85380 | 1.96937 | 31064 ft | 449 kts | 145° |
| 2026-05-07 21:08 | 48.80445 | 2.02732 | 31069 ft | 449 kts | 145° |
| 2026-05-07 21:08 | 48.75511 | 2.08526 | 31070 ft | 449 kts | 145° |
| 2026-05-07 21:09 | 48.70572 | 2.14299 | 31069 ft | 449 kts | 145° |
| 2026-05-07 21:09 | 48.65623 | 2.20063 | 31063 ft | 449 kts | 145° |
| 2026-05-07 21:10 | 48.60706 | 2.25784 | 31055 ft | 449 kts | 145° |
| 2026-05-07 21:10 | 48.55752 | 2.31538 | 31057 ft | 449 kts | 145° |
| 2026-05-07 21:11 | 48.50786 | 2.37281 | 31043 ft | 449 kts | 146° |
| 2026-05-07 21:11 | 48.43493 | 2.45704 | 31042 ft | 449 kts | 146° |
| 2026-05-07 21:12 | 48.38533 | 2.51409 | 31041 ft | 449 kts | 146° |
| 2026-05-07 21:12 | 48.33566 | 2.57099 | 31043 ft | 448 kts | 146° |
| 2026-05-07 21:13 | 48.28603 | 2.62780 | 31033 ft | 449 kts | 146° |
| 2026-05-07 21:13 | 48.23663 | 2.68420 | 31034 ft | 449 kts | 146° |
| 2026-05-07 21:14 | 48.18649 | 2.74123 | 31026 ft | 450 kts | 146° |
| 2026-05-07 21:14 | 48.13697 | 2.79742 | 31036 ft | 449 kts | 146° |
| 2026-05-07 21:15 | 48.08706 | 2.85388 | 31041 ft | 449 kts | 146° |
| 2026-05-07 21:15 | 48.03725 | 2.91033 | 31043 ft | 449 kts | 146° |
| 2026-05-07 21:16 | 47.98745 | 2.96657 | 31037 ft | 449 kts | 146° |
| 2026-05-07 21:16 | 47.93763 | 3.02266 | 31022 ft | 449 kts | 146° |
| 2026-05-07 21:17 | 47.88772 | 3.07861 | 31029 ft | 449 kts | 146° |
| 2026-05-07 21:17 | 47.83763 | 3.13453 | 31030 ft | 449 kts | 146° |
| 2026-05-07 21:18 | 47.78795 | 3.18996 | 31033 ft | 449 kts | 146° |
| 2026-05-07 21:18 | 47.73796 | 3.24565 | 31023 ft | 449 kts | 146° |
| 2026-05-07 21:19 | 47.68801 | 3.30124 | 31031 ft | 449 kts | 146° |
| 2026-05-07 21:19 | 47.63796 | 3.35674 | 31028 ft | 449 kts | 147° |
| 2026-05-07 21:20 | 47.58784 | 3.41207 | 31023 ft | 449 kts | 147° |
| 2026-05-07 21:20 | 47.53760 | 3.46734 | 31014 ft | 450 kts | 147° |
| 2026-05-07 21:21 | 47.48739 | 3.52255 | 31033 ft | 450 kts | 147° |
| 2026-05-07 21:21 | 47.43718 | 3.57762 | 31028 ft | 450 kts | 147° |
| 2026-05-07 21:22 | 47.38725 | 3.63231 | 31031 ft | 449 kts | 147° |
| 2026-05-07 21:22 | 47.33703 | 3.68726 | 31034 ft | 449 kts | 147° |
| 2026-05-07 21:23 | 47.28672 | 3.74198 | 31031 ft | 449 kts | 147° |
| 2026-05-07 21:23 | 47.23641 | 3.79660 | 31023 ft | 449 kts | 147° |
| 2026-05-07 21:24 | 47.18613 | 3.85115 | 31031 ft | 449 kts | 147° |
| 2026-05-07 21:24 | 47.13582 | 3.90557 | 31035 ft | 449 kts | 147° |
| 2026-05-07 21:25 | 47.08547 | 3.95984 | 31026 ft | 449 kts | 147° |
| 2026-05-07 21:25 | 47.03507 | 4.01407 | 31024 ft | 449 kts | 147° |
| 2026-05-07 21:26 | 46.98473 | 4.06813 | 31026 ft | 449 kts | 147° |
| 2026-05-07 21:26 | 46.93466 | 4.12180 | 31020 ft | 449 kts | 147° |
| 2026-05-07 21:27 | 46.88418 | 4.17572 | 31007 ft | 449 kts | 147° |
| 2026-05-07 21:27 | 46.83592 | 4.23398 | 31018 ft | 455 kts | 135° |
| 2026-05-07 21:28 | 46.80165 | 4.31224 | 31024 ft | 463 kts | 115° |
| 2026-05-07 21:28 | 46.78506 | 4.40356 | 31027 ft | 467 kts | 104° |
| 2026-05-07 21:29 | 46.77153 | 4.49659 | 30484 ft | 470 kts | 104° |
| 2026-05-07 21:29 | 46.76465 | 4.54327 | 30010 ft | 471 kts | 104° |
| 2026-05-07 21:29 | 46.75782 | 4.58936 | 29469 ft | 471 kts | 104° |
| 2026-05-07 21:30 | 46.75086 | 4.63607 | 28930 ft | 471 kts | 104° |
| 2026-05-07 21:30 | 46.74389 | 4.68277 | 28401 ft | 471 kts | 104° |
| 2026-05-07 21:30 | 46.73690 | 4.72949 | 27889 ft | 470 kts | 104° |
| 2026-05-07 21:30 | 46.72999 | 4.77580 | 27384 ft | 466 kts | 104° |
| 2026-05-07 21:31 | 46.72544 | 4.80632 | 27054 ft | 463 kts | 104° |
| 2026-05-07 21:31 | 46.71862 | 4.85195 | 26563 ft | 459 kts | 104° |
| 2026-05-07 21:31 | 46.71183 | 4.89717 | 26068 ft | 455 kts | 104° |
| 2026-05-07 21:31 | 46.70507 | 4.94209 | 25588 ft | 451 kts | 104° |
| 2026-05-07 21:32 | 46.69837 | 4.98654 | 25122 ft | 448 kts | 104° |
| 2026-05-07 21:32 | 46.69167 | 5.03072 | 24661 ft | 444 kts | 104° |
| 2026-05-07 21:32 | 46.68502 | 5.07436 | 24210 ft | 440 kts | 104° |
| 2026-05-07 21:32 | 46.67838 | 5.11764 | 23770 ft | 436 kts | 104° |
| 2026-05-07 21:33 | 46.67176 | 5.16067 | 23254 ft | 432 kts | 104° |
| 2026-05-07 21:33 | 46.66523 | 5.20315 | 22740 ft | 429 kts | 104° |
| 2026-05-07 21:33 | 46.65885 | 5.24534 | 22222 ft | 425 kts | 104° |
| 2026-05-07 21:33 | 46.65256 | 5.28734 | 21709 ft | 423 kts | 104° |
| 2026-05-07 21:34 | 46.64631 | 5.32914 | 21217 ft | 421 kts | 104° |
| 2026-05-07 21:34 | 46.64007 | 5.37056 | 20731 ft | 419 kts | 104° |
| 2026-05-07 21:34 | 46.63379 | 5.41186 | 20249 ft | 416 kts | 104° |
| 2026-05-07 21:34 | 46.62752 | 5.45286 | 19778 ft | 414 kts | 104° |
| 2026-05-07 21:35 | 46.62139 | 5.49307 | 19322 ft | 411 kts | 104° |
| 2026-05-07 21:35 | 46.61517 | 5.53344 | 18867 ft | 408 kts | 104° |
| 2026-05-07 21:35 | 46.60894 | 5.57358 | 18416 ft | 405 kts | 104° |
| 2026-05-07 21:35 | 46.60271 | 5.61340 | 17915 ft | 403 kts | 104° |
| 2026-05-07 21:36 | 46.59649 | 5.65284 | 17396 ft | 398 kts | 104° |
| 2026-05-07 21:36 | 46.59032 | 5.69179 | 16909 ft | 392 kts | 104° |
| 2026-05-07 21:36 | 46.58423 | 5.73023 | 16423 ft | 388 kts | 104° |
| 2026-05-07 21:36 | 46.57627 | 5.76699 | 16133 ft | 377 kts | 114° |
| 2026-05-07 21:37 | 46.56428 | 5.80027 | 15851 ft | 366 kts | 124° |
| 2026-05-07 21:37 | 46.54904 | 5.82923 | 15580 ft | 357 kts | 134° |
| 2026-05-07 21:37 | 46.53123 | 5.85356 | 15311 ft | 347 kts | 143° |
| 2026-05-07 21:37 | 46.51184 | 5.87367 | 15067 ft | 338 kts | 147° |
| 2026-05-07 21:38 | 46.49266 | 5.89297 | 14817 ft | 332 kts | 147° |
| 2026-05-07 21:38 | 46.47392 | 5.91188 | 14573 ft | 325 kts | 147° |
| 2026-05-07 21:38 | 46.45552 | 5.93043 | 14334 ft | 319 kts | 147° |
| 2026-05-07 21:38 | 46.43744 | 5.94859 | 14160 ft | 312 kts | 147° |
| 2026-05-07 21:39 | 46.41978 | 5.96625 | 13985 ft | 305 kts | 147° |
| 2026-05-07 21:39 | 46.40242 | 5.98358 | 13799 ft | 302 kts | 147° |
| 2026-05-07 21:39 | 46.38521 | 6.00075 | 13560 ft | 299 kts | 147° |
| 2026-05-07 21:39 | 46.36768 | 6.01585 | 13268 ft | 295 kts | 160° |
| 2026-05-07 21:40 | 46.34777 | 6.02231 | 13013 ft | 286 kts | 180° |
| 2026-05-07 21:40 | 46.32864 | 6.01927 | 12805 ft | 277 kts | 198° |
| 2026-05-07 21:40 | 46.31143 | 6.00790 | 12601 ft | 269 kts | 215° |
| 2026-05-07 21:40 | 46.29762 | 5.99020 | 12390 ft | 263 kts | 226° |
| 2026-05-07 21:41 | 46.28495 | 5.97154 | 12185 ft | 257 kts | 225° |
| 2026-05-07 21:41 | 46.27240 | 5.95325 | 11930 ft | 254 kts | 225° |
| 2026-05-07 21:41 | 46.26016 | 5.93546 | 11658 ft | 246 kts | 225° |
| 2026-05-07 21:41 | 46.24821 | 5.91805 | 11387 ft | 244 kts | 225° |
| 2026-05-07 21:42 | 46.23626 | 5.90065 | 11109 ft | 243 kts | 225° |
| 2026-05-07 21:42 | 46.22440 | 5.88339 | 10839 ft | 241 kts | 225° |
| 2026-05-07 21:42 | 46.21266 | 5.86633 | 10570 ft | 239 kts | 225° |
| 2026-05-07 21:42 | 46.20100 | 5.84937 | 10302 ft | 237 kts | 225° |
| 2026-05-07 21:43 | 46.18942 | 5.83253 | 10037 ft | 235 kts | 225° |
| 2026-05-07 21:43 | 46.17796 | 5.81590 | 9755 ft | 233 kts | 225° |
| 2026-05-07 21:43 | 46.16652 | 5.79930 | 9461 ft | 232 kts | 225° |
| 2026-05-07 21:43 | 46.15513 | 5.78280 | 9169 ft | 231 kts | 225° |
| 2026-05-07 21:44 | 46.14394 | 5.76661 | 8881 ft | 230 kts | 224° |
| 2026-05-07 21:44 | 46.13263 | 5.75027 | 8601 ft | 230 kts | 225° |
| 2026-05-07 21:44 | 46.12135 | 5.73396 | 8318 ft | 230 kts | 225° |
| 2026-05-07 21:44 | 46.11013 | 5.71765 | 8079 ft | 228 kts | 225° |
| 2026-05-07 21:45 | 46.09867 | 5.70178 | 8024 ft | 229 kts | 215° |
| 2026-05-07 21:45 | 46.08406 | 5.69291 | 7966 ft | 231 kts | 189° |
| 2026-05-07 21:45 | 46.06819 | 5.69507 | 7798 ft | 233 kts | 161° |
| 2026-05-07 21:45 | 46.05481 | 5.70828 | 7652 ft | 237 kts | 132° |
| 2026-05-07 21:46 | 46.04659 | 5.72899 | 7503 ft | 240 kts | 117° |
| 2026-05-07 21:46 | 46.03948 | 5.75078 | 7351 ft | 239 kts | 117° |
| 2026-05-07 21:46 | 46.03419 | 5.77358 | 7060 ft | 242 kts | 99° |
| 2026-05-07 21:46 | 46.03475 | 5.79757 | 6851 ft | 241 kts | 78° |
| 2026-05-07 21:47 | 46.04111 | 5.81974 | 6612 ft | 241 kts | 57° |
| 2026-05-07 21:47 | 46.05215 | 5.83786 | 6320 ft | 241 kts | 46° |
| 2026-05-07 21:47 | 46.06366 | 5.85449 | 5997 ft | 234 kts | 46° |
| 2026-05-07 21:47 | 46.07496 | 5.87085 | 5687 ft | 226 kts | 46° |
| 2026-05-07 21:48 | 46.08585 | 5.88667 | 5393 ft | 219 kts | 46° |
| 2026-05-07 21:48 | 46.09640 | 5.90202 | 5097 ft | 213 kts | 47° |
| 2026-05-07 21:48 | 46.10655 | 5.91678 | 4845 ft | 200 kts | 47° |
| 2026-05-07 21:48 | 46.11622 | 5.93086 | 4567 ft | 195 kts | 47° |
| 2026-05-07 21:49 | 46.12565 | 5.94462 | 4297 ft | 192 kts | 47° |
| 2026-05-07 21:49 | 46.13497 | 5.95820 | 4032 ft | 190 kts | 47° |
| 2026-05-07 21:49 | 46.14422 | 5.97168 | 3790 ft | 188 kts | 46° |
| 2026-05-07 21:49 | 46.15329 | 5.98493 | 3542 ft | 182 kts | 45° |
| 2026-05-07 21:50 | 46.16173 | 5.99724 | 3305 ft | 165 kts | 45° |
| 2026-05-07 21:50 | 46.16948 | 6.00857 | 3089 ft | 153 kts | 45° |
| 2026-05-07 21:50 | 46.17672 | 6.01915 | 2886 ft | 144 kts | 45° |
| 2026-05-07 21:50 | 46.18361 | 6.02934 | 2710 ft | 141 kts | 45° |
| 2026-05-07 21:51 | 46.19056 | 6.03932 | 2478 ft | 141 kts | 44° |
| 2026-05-07 21:51 | 46.19748 | 6.04940 | 2308 ft | 141 kts | 46° |
| 2026-05-07 21:51 | 46.20434 | 6.05951 | 2145 ft | 142 kts | 45° |
| 2026-05-07 21:51 | 46.21137 | 6.06977 | 1940 ft | 144 kts | 46° |
| 2026-05-07 21:52 | 46.21841 | 6.08006 | 1741 ft | 144 kts | 45° |
| 2026-05-07 21:52 | 46.22527 | 6.09015 | 1528 ft | 142 kts | 45° |
| 2026-05-07 21:52 | 46.23200 | 6.10006 | 1407 ft | 125 kts | 45° |
| 2026-05-07 21:52 | 46.23592 | 6.10577 | 1384 ft | 28 kts | 43° |
| 2026-05-07 21:53 | 46.23639 | 6.10719 | 1381 ft | 10 kts | 124° |
| 2026-05-07 21:53 | 46.23600 | 6.10730 | 1382 ft | 5 kts | 189° |
| 2026-05-07 21:53 | 46.23560 | 6.10713 | 1383 ft | 9 kts | 196° |
| 2026-05-07 21:53 | 46.23504 | 6.10690 | 1386 ft | 6 kts | 195° |
| 2026-05-07 21:54 | 46.23479 | 6.10680 | 1389 ft | 2 kts | 195° |
| 2026-05-07 21:54 | 46.23471 | 6.10677 | 1390 ft | 3 kts | 195° |
| 2026-05-07 21:54 | 46.23444 | 6.10667 | 1388 ft | 5 kts | 195° |
| 2026-05-07 21:54 | 46.23403 | 6.10642 | 1395 ft | 8 kts | 210° |
| 2026-05-07 21:55 | 46.23366 | 6.10612 | 1399 ft | 3 kts | 200° |
| 2026-05-07 21:55 | 46.23330 | 6.10610 | 1393 ft | 6 kts | 181° |
| 2026-05-07 21:55 | 46.23310 | 6.10609 | 1401 ft | 4 kts | 181° |
| 2026-05-07 21:55 | 46.23283 | 6.10608 | 1395 ft | 0 kts | 180° |